createdAt,value
2018-02-08T00:09:37.239Z,97.97
2018-02-08T00:19:38.781Z,95.73
2018-02-08T00:29:41.054Z,104.27
2018-02-08T00:39:42.570Z,100.57
2018-02-08T00:49:44.282Z,107.83
2018-02-08T00:59:45.790Z,124.57
2018-02-08T01:09:48.163Z,117.90
2018-02-08T01:19:49.704Z,116.03
2018-02-08T01:29:51.244Z,104.03
2018-02-08T01:39:52.769Z,119.60
2018-02-08T01:49:54.383Z,114.50
2018-02-08T01:59:56.013Z,96.10
2018-02-08T02:09:58.367Z,98.97
2018-02-08T02:19:59.972Z,98.93
2018-02-08T02:30:01.486Z,111.60
2018-02-08T02:40:03.035Z,101.00
2018-02-08T02:50:04.571Z,110.03
2018-02-08T03:00:06.098Z,106.70
2018-02-08T03:10:07.692Z,112.37
2018-02-08T03:20:09.221Z,111.93
2018-02-08T03:30:11.503Z,119.93
2018-02-08T03:40:13.021Z,106.57
2018-02-08T03:50:14.519Z,115.50
2018-02-08T04:00:16.036Z,123.27
2018-02-08T04:10:18.278Z,108.13
2018-02-08T04:20:19.881Z,108.00
2018-02-08T04:30:21.411Z,133.77
2018-02-08T04:40:41.544Z,129.50
2018-02-08T04:50:43.260Z,130.93
2018-02-08T05:00:44.790Z,116.87
2018-02-08T05:10:46.347Z,138.57
2018-02-08T05:20:47.908Z,126.23
2018-02-08T05:30:49.461Z,120.10
2018-02-08T05:40:51.107Z,124.67
2018-02-08T05:50:52.621Z,121.70
2018-02-08T06:00:54.150Z,124.60
2018-02-08T06:10:56.120Z,134.10
2018-02-08T06:20:57.663Z,134.87
2018-02-08T06:30:59.365Z,133.50
2018-02-08T06:41:01.035Z,123.83
2018-02-08T06:51:02.549Z,143.33
2018-02-08T07:01:04.066Z,126.90
2018-02-08T07:11:05.630Z,131.47
2018-02-08T07:21:07.218Z,139.10
2018-02-08T07:31:08.804Z,138.87
2018-02-08T07:41:10.341Z,122.60
2018-02-08T07:51:11.901Z,135.93
2018-02-08T08:01:13.449Z,127.53
2018-02-08T08:11:15.006Z,135.47
2018-02-08T08:21:16.651Z,125.93
2018-02-08T08:31:18.200Z,117.83
2018-02-08T08:41:19.720Z,108.30
2018-02-08T08:51:21.296Z,125.13
2018-02-08T09:01:23.015Z,145.83
2018-02-08T09:11:24.573Z,137.27
2018-02-08T09:21:26.877Z,135.93
2018-02-08T09:31:28.489Z,117.37
2018-02-08T09:41:30.844Z,127.43
2018-02-08T09:51:32.405Z,146.00
2018-02-08T10:01:34.677Z,137.00
2018-02-08T10:11:36.190Z,125.07
2018-02-08T10:21:37.722Z,117.07
2018-02-08T10:31:40.117Z,113.70
2018-02-08T10:41:41.716Z,115.27
2018-02-08T10:51:43.262Z,122.33
2018-02-08T11:01:44.795Z,120.43
2018-02-08T11:11:46.312Z,133.27
2018-02-08T11:21:47.867Z,131.77
2018-02-08T11:31:49.407Z,125.37
2018-02-08T11:41:57.975Z,135.43
2018-02-08T11:51:59.611Z,117.67
2018-02-08T12:02:02.023Z,119.27
2018-02-08T12:12:04.275Z,141.20
2018-02-08T12:22:06.008Z,115.40
2018-02-08T12:32:07.759Z,116.53
2018-02-08T12:42:09.400Z,117.07
2018-02-08T12:52:10.944Z,117.23
2018-02-08T13:02:13.220Z,124.33
2018-02-08T13:12:14.769Z,129.80
2018-02-08T13:22:16.342Z,117.13
2018-02-08T13:32:17.924Z,118.03
2018-02-08T13:42:19.508Z,128.03
2018-02-08T14:13:12.768Z,131.00
2018-02-08T14:23:14.308Z,116.30
2018-02-08T14:33:15.961Z,121.57
2018-02-08T14:43:17.524Z,129.33
2018-02-08T14:53:19.111Z,136.53
2018-02-08T15:03:20.641Z,118.87
2018-02-08T15:13:22.206Z,142.57
2018-02-08T15:23:23.969Z,127.87
2018-02-08T15:33:25.500Z,136.40
2018-02-08T15:43:27.885Z,138.37
2018-02-08T15:53:30.759Z,153.83
2018-02-08T16:03:35.389Z,153.77
2018-02-08T16:13:37.179Z,154.90
2018-02-08T16:23:39.529Z,137.97
2018-02-08T16:33:41.852Z,173.27
2018-02-08T16:43:44.137Z,160.30
2018-02-08T16:53:45.717Z,155.17
2018-02-08T17:03:47.280Z,161.27
2018-02-08T17:13:48.818Z,164.30
2018-02-08T17:23:50.358Z,158.97
2018-02-08T17:33:51.915Z,164.83
2018-02-08T17:43:53.516Z,157.47
2018-02-08T17:53:55.210Z,166.43
2018-02-08T18:03:56.743Z,156.83
2018-02-08T18:13:58.324Z,177.87
2018-02-08T18:23:59.793Z,170.50
2018-02-08T18:34:01.510Z,175.23
2018-02-08T18:44:03.076Z,162.60
2018-02-08T18:54:05.384Z,170.70
2018-02-08T19:04:06.964Z,185.47
2018-02-08T19:14:09.424Z,165.83
2018-02-08T19:24:11.420Z,156.97
2018-02-08T19:34:13.713Z,175.47
2018-02-08T19:44:15.376Z,176.40
2018-02-08T19:54:16.987Z,160.53
2018-02-08T20:04:18.674Z,156.50
2018-02-08T20:14:26.491Z,164.33
2018-02-08T20:24:28.766Z,162.30
2018-02-08T20:34:30.389Z,168.60
2018-02-08T20:44:31.952Z,175.13
2018-02-08T20:54:33.566Z,171.77
2018-02-08T21:04:35.150Z,174.93
2018-02-08T21:14:36.729Z,171.40
2018-02-08T21:24:38.262Z,180.53
2018-02-08T21:34:39.838Z,174.20
2018-02-08T21:44:41.314Z,152.03
2018-02-08T21:54:43.599Z,163.70
2018-02-08T22:04:45.164Z,167.70
2018-02-08T22:14:46.725Z,145.07
2018-02-08T22:24:48.963Z,157.83
2018-02-08T22:34:50.500Z,186.37
2018-02-08T22:44:52.049Z,197.77
2018-02-08T22:54:54.342Z,161.83
2018-02-08T23:04:56.004Z,170.83
2018-02-08T23:14:57.528Z,158.47
2018-02-08T23:24:59.028Z,175.50
2018-02-08T23:35:00.560Z,176.80
2018-02-08T23:45:02.872Z,171.00
2018-02-08T23:55:04.391Z,170.30
